Terminal Aerodrome Forecast
Issued by NWS Buffalo, NY

Home | Current Version | Previous Version | Text Only | Print | Product List | Glossary On
Versions: 1 2 3 4 5 6 7 8 9 10 11 12 13 14 15 16 17 18 19 20 21 22 23 24 25 26 27 28 29 30
000
FTUS41 KBUF 100650 AAB
TAFBUF
TAF AMD
KBUF 100650Z 1007/1106 24018G28KT 2SM -SN OVC015
      TEMPO 1007/1008 1/4SM +SN BKN003
     FM101200 27014G22KT 3SM -SHSN OVC015
     FM101400 28012G20KT 2SM -SN OVC020
     FM110000 29010G18KT 1/2SM SN OVC025
     FM110200 29010G19KT 5SM -SN OVC025=

USA.gov is the U.S. government's official web portal to all federal, state and local government web resources and services.